Coal Hollow, Illinois
Current Conditions -  °F | °C
As of 3:15 AM on Wednesday 22 Oct 2014 (Local Time) from KVYS Reporting Station
Clear Clear  
Wind Chill: 31°   Ceiling: Unl
Heat Index: 36°   Visibility: 10mi
Dew Point: 34°   Wind: 7mph
Humidity: 93%   Direction: 40°NE
Pressure: 30.29"   Gusts: NA
Location:  41.3609°N, 89.3981°W
Report Text: KVYS 220815Z AUTO 04006KT 10SM CLR 02/01 A3029 RMK AO2 T00230012
Loading
Personal Weather Stations






























Interactive Weather Map
Tropical Storm Tracking
New forecast layout! Learn more

10-Day Weather Forecast

Advertisements
Track Severe Weather on mobile